Weather at Haydock Park Airstrip

Public forecast

Using degrees Celsius for public forecast. Weather courtesy of forecast.io.

Closest aviation weather report (METAR) to Haydock Park Airstrip

Closest report is Liverpool John Lennon Airport, 11.9 nm (22.0 km) SW. Retrieved 2020/11/23 20:20 UTC (36 minutes ago):

EGGP 232020Z AUTO 18016KT 9999 SCT026/// 12/09 Q1018

Closest aviation forecast (TAF) to Haydock Park Airstrip

Closest forecast is Liverpool John Lennon Airport, 11.9 nm (22.0 km) SW. Retrieved 2020/11/23 18:00 UTC (3 hours ago):

TAF EGGP 231654Z 2318/2418 18012KT 9999 SCT022 PROB40 TEMPO 2318/2406 BKN014 PROB30 TEMPO 2318/2403 21015G25KT 7000 -RA